createdAt,value
2023-04-03T00:01:08.040Z,2.67
2023-04-03T00:03:35.753Z,2.80
2023-04-03T00:06:03.321Z,2.40
2023-04-03T00:08:33.559Z,2.60
2023-04-03T00:11:00.273Z,2.40
2023-04-03T00:13:27.198Z,2.57
2023-04-03T00:15:54.054Z,2.50
2023-04-03T00:18:22.871Z,2.47
2023-04-03T00:20:50.185Z,2.43
2023-04-03T00:23:17.885Z,2.37
2023-04-03T00:25:44.699Z,2.30
2023-04-03T00:28:11.427Z,2.50
2023-04-03T00:30:38.686Z,2.30
2023-04-03T00:33:05.815Z,2.33
2023-04-03T00:35:33.121Z,2.23
2023-04-03T00:37:59.890Z,2.37
2023-04-03T00:40:28.337Z,2.30
2023-04-03T00:43:00.554Z,2.70
2023-04-03T00:45:39.257Z,2.63
2023-04-03T00:48:10.959Z,2.80
2023-04-03T00:50:43.428Z,3.07
2023-04-03T00:53:16.838Z,2.67
2023-04-03T00:55:45.145Z,2.60
2023-04-03T00:58:13.816Z,3.37
2023-04-03T01:00:47.683Z,2.40
2023-04-03T01:03:14.484Z,2.80
2023-04-03T01:05:41.961Z,2.43
2023-04-03T01:08:09.040Z,2.83
2023-04-03T01:10:36.135Z,2.90
2023-04-03T01:13:28.548Z,2.93
2023-04-03T01:15:55.680Z,2.40
2023-04-03T01:18:25.357Z,2.50
2023-04-03T01:21:41.982Z,2.63
2023-04-03T01:24:11.479Z,2.97
2023-04-03T01:26:38.649Z,2.37
2023-04-03T01:29:06.188Z,2.90
2023-04-03T01:31:51.438Z,2.50
2023-04-03T01:34:19.296Z,2.40
2023-04-03T01:36:46.111Z,2.70
2023-04-03T01:39:13.629Z,2.90
2023-04-03T01:41:40.773Z,2.80
2023-04-03T01:44:07.578Z,2.60
2023-04-03T01:46:34.308Z,2.70
2023-04-03T01:49:01.247Z,2.57
2023-04-03T01:51:27.991Z,2.73
2023-04-03T01:53:54.767Z,2.70
2023-04-03T01:56:22.012Z,2.83
2023-04-03T01:58:49.092Z,2.83
2023-04-03T02:01:16.423Z,2.57
2023-04-03T02:03:43.232Z,2.70
2023-04-03T02:06:10.957Z,2.87
2023-04-03T02:08:39.355Z,3.20
2023-04-03T02:11:06.343Z,2.30
2023-04-03T02:13:33.089Z,2.70
2023-04-03T02:16:00.051Z,2.90
2023-04-03T02:18:26.870Z,2.80
2023-04-03T02:20:53.605Z,3.00
2023-04-03T02:23:20.394Z,2.97
2023-04-03T02:25:47.088Z,3.10
2023-04-03T02:28:13.789Z,2.80
2023-04-03T02:30:40.607Z,2.83
2023-04-03T02:33:07.468Z,2.90
2023-04-03T02:35:34.291Z,2.80
2023-04-03T02:38:01.121Z,2.60
2023-04-03T02:40:27.834Z,2.60
2023-04-03T02:42:54.569Z,2.80
2023-04-03T02:45:21.757Z,2.63
2023-04-03T02:47:48.498Z,2.60
2023-04-03T02:50:15.416Z,2.70
2023-04-03T02:52:42.161Z,2.90
2023-04-03T02:55:09.379Z,2.40
2023-04-03T02:57:36.260Z,2.77
2023-04-03T03:00:04.087Z,2.67
2023-04-03T03:02:31.050Z,2.50
2023-04-03T03:04:57.989Z,2.70
2023-04-03T03:07:24.855Z,2.60
2023-04-03T03:09:51.551Z,2.63
2023-04-03T03:12:22.509Z,2.70
2023-04-03T03:14:49.457Z,2.57
2023-04-03T03:17:17.058Z,2.57
2023-04-03T03:19:44.736Z,2.17
2023-04-03T03:22:11.605Z,2.73
2023-04-03T03:24:38.378Z,2.90
2023-04-03T03:27:05.174Z,2.47
2023-04-03T03:29:31.915Z,2.60
2023-04-03T03:31:58.634Z,2.50
2023-04-03T03:34:25.533Z,2.47
2023-04-03T03:36:52.248Z,2.60
2023-04-03T03:39:18.943Z,2.67
2023-04-03T03:41:45.656Z,2.50
2023-04-03T03:44:13.188Z,2.83
2023-04-03T03:46:41.134Z,2.60
2023-04-03T03:49:08.094Z,2.67
2023-04-03T03:51:34.797Z,2.53
2023-04-03T03:54:01.528Z,2.80
2023-04-03T03:56:28.245Z,2.80
2023-04-03T03:58:57.015Z,2.77
2023-04-03T04:01:25.452Z,2.80
2023-04-03T04:03:52.590Z,2.83
2023-04-03T04:06:19.425Z,3.10
2023-04-03T04:08:46.185Z,2.50
2023-04-03T04:11:13.044Z,2.60
2023-04-03T04:13:39.813Z,2.50
2023-04-03T04:16:07.586Z,2.80
2023-04-03T04:18:34.677Z,3.13
2023-04-03T04:21:01.443Z,2.90
2023-04-03T04:23:28.189Z,2.93
2023-04-03T04:25:54.938Z,3.00
2023-04-03T04:28:21.762Z,3.03
2023-04-03T04:30:48.522Z,2.87
2023-04-03T04:33:15.804Z,2.50
2023-04-03T04:35:44.609Z,2.87
2023-04-03T04:38:11.654Z,3.20
2023-04-03T04:40:38.636Z,2.87
2023-04-03T04:43:05.840Z,3.00
2023-04-03T04:45:32.637Z,2.70
2023-04-03T04:47:59.393Z,2.87
2023-04-03T04:50:26.227Z,3.00
2023-04-03T04:52:53.014Z,2.77
2023-04-03T04:55:20.344Z,3.03
2023-04-03T04:57:47.075Z,3.00
2023-04-03T05:00:14.873Z,2.70
2023-04-03T05:02:41.618Z,3.60
2023-04-03T05:05:09.566Z,3.10
2023-04-03T05:07:36.650Z,3.30
2023-04-03T05:10:04.866Z,3.30
2023-04-03T05:12:31.591Z,3.10
2023-04-03T05:14:58.318Z,3.07
2023-04-03T05:17:25.127Z,3.17
2023-04-03T05:19:51.893Z,3.23
2023-04-03T05:22:18.614Z,3.23
2023-04-03T05:24:45.360Z,3.17
2023-04-03T05:27:12.129Z,3.30
2023-04-03T05:29:38.858Z,3.43
2023-04-03T05:32:05.591Z,3.17
2023-04-03T05:34:32.284Z,3.20
2023-04-03T05:36:59.022Z,3.03
2023-04-03T05:39:26.462Z,3.13
2023-04-03T05:41:53.267Z,3.37
2023-04-03T05:44:20.094Z,3.40
2023-04-03T05:46:46.939Z,3.40
2023-04-03T05:49:13.717Z,3.63
2023-04-03T05:51:41.257Z,3.07
2023-04-03T05:54:18.902Z,3.00
2023-04-03T05:56:46.129Z,2.90
2023-04-03T05:59:12.854Z,2.90
2023-04-03T06:01:39.716Z,3.00
2023-04-03T06:04:06.785Z,3.10
2023-04-03T06:07:01.393Z,2.90
2023-04-03T06:09:32.429Z,3.10
2023-04-03T06:11:59.651Z,2.90
2023-04-03T06:14:27.430Z,3.03
2023-04-03T06:16:55.273Z,3.30
2023-04-03T06:19:22.630Z,3.30
2023-04-03T06:21:49.396Z,3.57
2023-04-03T06:24:18.156Z,3.20
2023-04-03T06:26:45.394Z,3.40
2023-04-03T06:29:12.154Z,3.23
2023-04-03T06:31:38.992Z,3.13
2023-04-03T06:34:09.521Z,3.30
2023-04-03T06:36:36.700Z,3.43
2023-04-03T06:39:04.310Z,2.97
2023-04-03T06:41:31.842Z,3.00
2023-04-03T06:43:59.400Z,3.20
2023-04-03T06:46:27.751Z,3.53
2023-04-03T06:48:54.902Z,3.57
2023-04-03T06:51:27.674Z,3.53
2023-04-03T06:53:57.850Z,3.50
2023-04-03T06:56:26.187Z,3.10
2023-04-03T06:58:55.606Z,3.10
2023-04-03T07:01:22.614Z,3.60
2023-04-03T07:03:50.890Z,3.50
2023-04-03T07:06:19.115Z,3.17
2023-04-03T07:08:49.007Z,3.23
2023-04-03T07:11:17.396Z,3.60
2023-04-03T07:13:44.380Z,3.37
2023-04-03T07:16:11.901Z,3.13
2023-04-03T07:18:38.728Z,3.00
2023-04-03T07:21:05.739Z,2.83
2023-04-03T07:23:32.700Z,3.33
2023-04-03T07:25:59.939Z,3.03
2023-04-03T07:28:26.949Z,3.37
2023-04-03T07:31:07.566Z,3.47
2023-04-03T07:33:35.779Z,3.47
2023-04-03T07:36:03.075Z,3.83
2023-04-03T07:38:30.023Z,2.97
2023-04-03T07:40:56.921Z,3.30
2023-04-03T07:43:25.626Z,2.80
2023-04-03T07:45:53.435Z,3.50
2023-04-03T07:48:23.131Z,3.70
2023-04-03T07:50:50.259Z,3.00
2023-04-03T07:53:17.704Z,3.13
2023-04-03T07:55:47.684Z,2.70
2023-04-03T07:58:18.467Z,3.07
2023-04-03T08:00:46.575Z,3.33
2023-04-03T08:03:14.266Z,3.03
2023-04-03T08:05:44.175Z,2.67
2023-04-03T08:08:19.931Z,3.00
2023-04-03T08:10:53.955Z,2.90
2023-04-03T08:13:22.670Z,2.93
2023-04-03T08:15:49.432Z,2.70
2023-04-03T08:18:17.081Z,2.87
2023-04-03T08:20:44.558Z,3.00
2023-04-03T08:23:12.219Z,2.80
2023-04-03T08:25:41.294Z,2.90
2023-04-03T08:28:09.616Z,3.10
2023-04-03T08:30:36.973Z,2.97
2023-04-03T08:33:04.875Z,2.77
2023-04-03T08:35:31.767Z,3.07
2023-04-03T08:37:58.930Z,2.30
2023-04-03T08:40:26.047Z,2.80
2023-04-03T08:43:13.317Z,2.90
2023-04-03T08:45:54.631Z,2.53
2023-04-03T08:48:33.969Z,2.57
2023-04-03T08:51:12.921Z,2.47
2023-04-03T08:53:46.652Z,2.53
2023-04-03T08:56:19.073Z,2.40
2023-04-03T08:59:04.656Z,2.17
2023-04-03T09:01:38.406Z,2.30
2023-04-03T09:04:19.469Z,2.47
2023-04-03T09:06:55.255Z,2.10
2023-04-03T09:09:42.111Z,2.40
2023-04-03T09:12:17.942Z,2.43
2023-04-03T09:15:06.674Z,2.20
2023-04-03T09:18:00.322Z,2.20
2023-04-03T09:21:06.916Z,2.10
2023-04-03T09:23:54.287Z,2.17
2023-04-03T09:26:31.116Z,2.20
2023-04-03T09:29:05.158Z,2.53
2023-04-03T09:31:42.946Z,2.57
2023-04-03T09:34:29.201Z,2.27
2023-04-03T09:37:00.031Z,2.80
2023-04-03T09:39:30.135Z,2.43
2023-04-03T09:42:05.812Z,2.23
2023-04-03T09:44:36.927Z,2.23
2023-04-03T09:47:34.411Z,2.43
2023-04-03T09:50:21.918Z,2.90
2023-04-03T09:52:52.634Z,2.07
2023-04-03T09:55:27.847Z,2.27
2023-04-03T09:58:02.579Z,2.53
2023-04-03T10:00:38.790Z,2.07
2023-04-03T10:03:27.263Z,2.57
2023-04-03T10:05:56.068Z,2.50
2023-04-03T10:08:32.396Z,2.47
2023-04-03T10:11:19.721Z,2.47
2023-04-03T10:14:02.294Z,2.30
2023-04-03T10:16:44.713Z,1.83
2023-04-03T10:19:24.797Z,2.30
2023-04-03T10:22:17.188Z,2.17
2023-04-03T10:25:11.629Z,2.00
2023-04-03T10:28:28.465Z,2.10
2023-04-03T10:31:26.432Z,2.03
2023-04-03T10:34:29.205Z,4.43
2023-04-03T10:37:24.344Z,2.43
2023-04-03T10:40:06.654Z,2.40
2023-04-03T10:42:48.346Z,2.07
2023-04-03T10:45:45.166Z,2.40
2023-04-03T10:48:33.307Z,2.20
2023-04-03T10:51:28.820Z,2.30
2023-04-03T10:54:02.777Z,2.37
2023-04-03T10:56:36.582Z,2.00
2023-04-03T10:59:19.699Z,2.30
2023-04-03T11:01:55.015Z,2.33
2023-04-03T11:04:28.688Z,2.23
2023-04-03T11:07:13.346Z,2.57
2023-04-03T11:09:49.316Z,2.10
2023-04-03T11:12:42.605Z,2.47
2023-04-03T11:15:18.742Z,2.17
2023-04-03T11:17:56.613Z,1.80
2023-04-03T11:20:33.778Z,2.10
2023-04-03T11:23:30.362Z,2.20
2023-04-03T11:26:18.289Z,1.90
2023-04-03T11:28:45.832Z,2.00
2023-04-03T11:32:03.228Z,2.17
2023-04-03T11:34:51.568Z,2.17
2023-04-03T11:37:45.232Z,1.80
2023-04-03T11:40:18.814Z,2.40
2023-04-03T11:42:54.106Z,2.13
2023-04-03T11:45:26.504Z,2.10
2023-04-03T11:48:25.018Z,1.90
2023-04-03T11:50:52.991Z,2.03
2023-04-03T11:53:29.906Z,1.80
2023-04-03T11:56:03.084Z,1.97
2023-04-03T11:58:36.064Z,2.10
2023-04-03T12:01:11.801Z,2.00
2023-04-03T12:03:41.460Z,2.40
2023-04-03T12:06:08.290Z,2.00
2023-04-03T12:08:35.210Z,1.70
2023-04-03T12:11:14.217Z,1.73
2023-04-03T12:14:04.822Z,1.87
2023-04-03T12:16:40.405Z,1.90
2023-04-03T12:19:20.668Z,2.03
2023-04-03T12:21:49.158Z,1.80
2023-04-03T12:24:21.504Z,2.00
2023-04-03T12:27:27.264Z,1.90
2023-04-03T12:30:02.541Z,2.20
2023-04-03T12:32:46.720Z,1.80
2023-04-03T12:35:52.637Z,2.20
2023-04-03T12:39:04.440Z,1.80
2023-04-03T12:42:04.603Z,1.60
2023-04-03T12:44:55.650Z,1.67
2023-04-03T12:47:37.031Z,1.53
2023-04-03T12:50:16.898Z,2.03
2023-04-03T12:52:52.088Z,1.60
2023-04-03T12:55:21.651Z,1.90
2023-04-03T12:57:48.999Z,1.70
2023-04-03T13:00:33.519Z,1.53
2023-04-03T13:03:04.488Z,1.97
2023-04-03T13:05:35.903Z,1.77
2023-04-03T13:08:15.918Z,1.63
2023-04-03T13:11:12.945Z,1.50
2023-04-03T13:13:40.330Z,1.40
2023-04-03T13:16:14.537Z,1.67
2023-04-03T13:18:41.897Z,1.90
2023-04-03T13:21:29.101Z,1.50
2023-04-03T13:24:14.138Z,1.80
2023-04-03T13:26:43.747Z,1.50
2023-04-03T13:29:32.016Z,1.80
2023-04-03T13:32:02.275Z,1.80
2023-04-03T13:34:47.124Z,1.80
2023-04-03T13:37:21.920Z,1.63
2023-04-03T13:40:02.693Z,1.80
2023-04-03T13:42:34.635Z,2.00
2023-04-03T13:45:26.939Z,1.70
2023-04-03T13:48:23.780Z,1.60
2023-04-03T13:51:18.906Z,1.67
2023-04-03T13:54:00.580Z,1.70
2023-04-03T13:56:42.811Z,1.73
2023-04-03T13:59:12.691Z,1.90
2023-04-03T14:01:50.580Z,2.20
2023-04-03T14:04:28.512Z,1.70
2023-04-03T14:06:56.128Z,1.40
2023-04-03T14:09:26.220Z,2.03
2023-04-03T14:12:05.743Z,1.50
2023-04-03T14:14:36.464Z,1.70
2023-04-03T14:17:25.225Z,1.87
2023-04-03T14:19:54.320Z,1.50
2023-04-03T14:22:29.286Z,1.87
2023-04-03T14:24:57.137Z,1.83
2023-04-03T14:27:39.856Z,1.40
2023-04-03T14:30:17.781Z,1.70
2023-04-03T14:32:45.849Z,1.57
2023-04-03T14:35:12.789Z,1.40
2023-04-03T14:37:39.996Z,1.30
2023-04-03T14:40:09.837Z,1.60
2023-04-03T14:42:38.874Z,1.60
2023-04-03T14:45:11.495Z,1.50
2023-04-03T14:47:52.564Z,2.00
2023-04-03T14:50:25.199Z,1.50
2023-04-03T14:52:55.562Z,1.50
2023-04-03T14:55:26.037Z,1.83
2023-04-03T14:57:54.349Z,2.07
2023-04-03T15:00:23.000Z,1.60
2023-04-03T15:02:50.417Z,1.33
2023-04-03T15:05:17.889Z,1.63
2023-04-03T15:07:53.352Z,1.40
2023-04-03T15:10:25.714Z,1.40
2023-04-03T15:12:53.662Z,1.47
2023-04-03T15:15:22.817Z,1.63
2023-04-03T15:17:55.915Z,1.50
2023-04-03T15:20:27.720Z,1.63
2023-04-03T15:22:57.126Z,1.60
2023-04-03T15:25:25.512Z,1.43
2023-04-03T15:27:53.362Z,1.67
2023-04-03T15:30:20.878Z,1.33
2023-04-03T15:32:48.346Z,1.67
2023-04-03T15:35:16.394Z,1.70
2023-04-03T15:37:44.027Z,1.40
2023-04-03T15:40:11.999Z,1.50
2023-04-03T15:42:39.803Z,1.60
2023-04-03T15:45:08.253Z,1.50
2023-04-03T15:47:35.390Z,1.50
2023-04-03T15:50:02.272Z,1.70
2023-04-03T15:52:29.111Z,1.50
2023-04-03T15:54:55.886Z,1.73
2023-04-03T15:57:26.900Z,1.67
2023-04-03T15:59:54.149Z,1.70
2023-04-03T16:02:22.104Z,1.47
2023-04-03T16:04:49.395Z,1.60
2023-04-03T16:07:16.209Z,1.90
2023-04-03T16:09:43.071Z,1.80
2023-04-03T16:12:09.881Z,1.80
2023-04-03T16:14:36.637Z,1.73
2023-04-03T16:17:03.689Z,1.77
2023-04-03T16:19:31.070Z,1.90
2023-04-03T16:21:58.200Z,1.93
2023-04-03T16:24:25.107Z,2.00
2023-04-03T16:26:51.882Z,1.93
2023-04-03T16:29:18.604Z,1.90
2023-04-03T16:31:45.738Z,1.60
2023-04-03T16:34:13.047Z,1.97
2023-04-03T16:36:40.097Z,1.80
2023-04-03T16:39:06.850Z,1.73
2023-04-03T16:41:33.610Z,2.00
2023-04-03T16:44:00.491Z,1.87
2023-04-03T16:46:27.425Z,1.90
2023-04-03T16:48:54.359Z,2.20
2023-04-03T16:51:21.254Z,2.03
2023-04-03T16:53:47.943Z,1.70
2023-04-03T16:56:14.650Z,1.70
2023-04-03T16:58:41.346Z,1.60
2023-04-03T17:01:14.759Z,1.80
2023-04-03T17:03:41.592Z,1.63
2023-04-03T17:06:09.021Z,1.60
2023-04-03T17:08:36.079Z,1.70
2023-04-03T17:11:02.934Z,2.20
2023-04-03T17:13:32.934Z,1.87
2023-04-03T17:16:00.969Z,2.13
2023-04-03T17:18:28.232Z,2.13
2023-04-03T17:20:56.799Z,2.00
2023-04-03T17:23:27.058Z,2.10
2023-04-03T17:25:55.106Z,2.00
2023-04-03T17:28:28.535Z,2.10
2023-04-03T17:31:01.826Z,1.90
2023-04-03T17:33:31.073Z,3.53
2023-04-03T17:36:01.296Z,2.87
2023-04-03T17:38:28.714Z,2.73
2023-04-03T17:41:01.462Z,2.27
2023-04-03T17:43:28.543Z,2.37
2023-04-03T17:46:08.980Z,2.30
2023-04-03T17:48:38.664Z,2.80
2023-04-03T17:51:16.193Z,2.10
2023-04-03T17:53:44.385Z,2.60
2023-04-03T17:56:23.006Z,2.00
2023-04-03T17:58:51.382Z,1.83
2023-04-03T18:01:22.426Z,2.10
2023-04-03T18:03:54.512Z,2.10
2023-04-03T18:06:27.824Z,2.30
2023-04-03T18:09:30.686Z,1.97
2023-04-03T18:11:58.275Z,2.07
2023-04-03T18:14:28.012Z,2.13
2023-04-03T18:16:57.344Z,2.23
2023-04-03T18:19:25.714Z,2.33
2023-04-03T18:21:59.537Z,2.40
2023-04-03T18:24:27.433Z,2.57
2023-04-03T18:27:06.001Z,2.47
2023-04-03T18:29:36.985Z,1.90
2023-04-03T18:32:06.518Z,2.00
2023-04-03T18:34:33.610Z,1.87
2023-04-03T18:37:00.532Z,2.00
2023-04-03T18:39:27.664Z,2.30
2023-04-03T18:41:58.266Z,2.53
2023-04-03T18:44:27.590Z,2.07
2023-04-03T18:46:56.510Z,2.30
2023-04-03T18:49:23.325Z,2.17
2023-04-03T18:51:50.222Z,2.50
2023-04-03T18:54:16.956Z,2.33
2023-04-03T18:56:43.800Z,2.20
2023-04-03T18:59:10.540Z,2.03
2023-04-03T19:01:37.509Z,2.00
2023-04-03T19:04:04.737Z,2.13
2023-04-03T19:06:34.470Z,2.10
2023-04-03T19:09:02.899Z,2.37
2023-04-03T19:11:30.482Z,2.00
2023-04-03T19:14:14.602Z,2.37
2023-04-03T19:16:43.583Z,2.20
2023-04-03T19:19:10.521Z,2.10
2023-04-03T19:21:41.056Z,2.37
2023-04-03T19:24:10.939Z,2.53
2023-04-03T19:26:38.023Z,2.20
2023-04-03T19:29:05.039Z,2.23
2023-04-03T19:31:33.399Z,2.17
2023-04-03T19:34:02.454Z,2.50
2023-04-03T19:36:30.444Z,1.80
2023-04-03T19:38:57.208Z,2.17
2023-04-03T19:41:27.960Z,1.90
2023-04-03T19:43:56.489Z,1.90
2023-04-03T19:46:26.424Z,2.20
2023-04-03T19:48:53.427Z,2.37
2023-04-03T19:51:20.647Z,1.93
2023-04-03T19:53:48.421Z,2.07
2023-04-03T19:56:20.647Z,2.10
2023-04-03T19:58:53.602Z,2.10
2023-04-03T20:01:26.762Z,2.17
2023-04-03T20:03:53.621Z,1.93
2023-04-03T20:06:21.492Z,2.20
2023-04-03T20:08:48.328Z,1.70
2023-04-03T20:11:15.301Z,2.20
2023-04-03T20:13:42.250Z,2.27
2023-04-03T20:16:10.085Z,2.03
2023-04-03T20:18:37.058Z,2.27
2023-04-03T20:21:05.866Z,2.10
2023-04-03T20:23:33.898Z,2.10
2023-04-03T20:26:11.625Z,2.00
2023-04-03T20:28:39.843Z,2.00
2023-04-03T20:31:07.712Z,2.13
2023-04-03T20:33:35.214Z,2.13
2023-04-03T20:36:02.396Z,2.30
2023-04-03T20:38:29.205Z,2.30
2023-04-03T20:40:56.079Z,2.27
2023-04-03T20:43:23.563Z,2.67
2023-04-03T20:45:50.709Z,2.30
2023-04-03T20:48:18.275Z,2.20
2023-04-03T20:50:46.302Z,2.07
2023-04-03T20:53:13.649Z,2.63
2023-04-03T20:55:41.348Z,2.00
2023-04-03T20:58:08.489Z,2.30
2023-04-03T21:00:37.374Z,1.90
2023-04-03T21:03:04.475Z,2.20
2023-04-03T21:05:34.728Z,2.33
2023-04-03T21:08:59.328Z,2.23
2023-04-03T21:12:22.634Z,2.73
2023-04-03T21:15:46.040Z,2.37
2023-04-03T21:18:12.957Z,2.20
2023-04-03T21:20:40.694Z,2.60
2023-04-03T21:23:07.925Z,2.10
2023-04-03T21:25:35.051Z,2.40
2023-04-03T21:28:02.529Z,2.60
2023-04-03T21:30:29.506Z,2.50
2023-04-03T21:32:56.344Z,2.40
2023-04-03T21:35:23.550Z,2.50
2023-04-03T21:37:50.294Z,2.47
2023-04-03T21:40:17.526Z,2.43
2023-04-03T21:42:44.306Z,2.60
2023-04-03T21:45:16.411Z,2.73
2023-04-03T21:47:44.722Z,2.47
2023-04-03T21:50:11.710Z,2.43
2023-04-03T21:52:38.507Z,2.30
2023-04-03T21:55:05.860Z,2.30
2023-04-03T21:57:32.554Z,2.50
2023-04-03T21:59:59.428Z,2.10
2023-04-03T22:02:31.322Z,2.17
2023-04-03T22:04:58.306Z,2.50
2023-04-03T22:07:25.497Z,2.60
2023-04-03T22:09:52.197Z,2.70
2023-04-03T22:12:19.110Z,2.10
2023-04-03T22:14:45.830Z,2.50
2023-04-03T22:17:12.620Z,2.30
2023-04-03T22:19:39.377Z,2.30
2023-04-03T22:22:07.350Z,2.23
2023-04-03T22:24:34.064Z,2.00
2023-04-03T22:27:00.812Z,2.43
2023-04-03T22:29:27.750Z,2.30
2023-04-03T22:31:54.630Z,2.50
2023-04-03T22:34:24.395Z,2.13
2023-04-03T22:36:51.101Z,2.30
2023-04-03T22:39:19.200Z,2.20
2023-04-03T22:41:46.127Z,2.20
2023-04-03T22:44:12.887Z,2.47
2023-04-03T22:46:39.749Z,2.30
2023-04-03T22:49:06.582Z,2.37
2023-04-03T22:51:33.329Z,2.10
2023-04-03T22:54:00.459Z,2.00
2023-04-03T22:56:27.700Z,2.00
2023-04-03T22:58:55.116Z,1.77
2023-04-03T23:01:23.960Z,2.17
2023-04-03T23:03:51.563Z,2.10
2023-04-03T23:06:18.469Z,2.30
2023-04-03T23:08:45.208Z,1.97
2023-04-03T23:11:12.020Z,1.90
2023-04-03T23:13:38.857Z,1.80
2023-04-03T23:16:06.018Z,2.17
2023-04-03T23:18:33.401Z,2.20
2023-04-03T23:21:04.663Z,1.70
2023-04-03T23:23:31.989Z,2.00
2023-04-03T23:26:01.261Z,2.10
2023-04-03T23:28:29.201Z,2.30
2023-04-03T23:31:05.407Z,2.10
2023-04-03T23:33:33.635Z,2.00
2023-04-03T23:36:07.564Z,2.27
2023-04-03T23:38:35.198Z,2.30
2023-04-03T23:41:02.123Z,2.50
2023-04-03T23:43:29.194Z,2.00
2023-04-03T23:45:56.275Z,2.30
2023-04-03T23:48:22.987Z,2.73
2023-04-03T23:50:49.728Z,2.30
2023-04-03T23:53:17.082Z,2.40
2023-04-03T23:55:43.824Z,2.50
2023-04-03T23:58:13.420Z,2.60
